sensor_id;sensor_type;location;lat;lon;timestamp;P1;P2;P0
40569;PMS5003;26270;34.428;-119.710;2023-03-01T00:01:18;2;2;
40569;PMS5003;26270;34.428;-119.710;2023-03-01T00:03:49;4;3;
40569;PMS5003;26270;34.428;-119.710;2023-03-01T00:06:17;2;1;
40569;PMS5003;26270;34.428;-119.710;2023-03-01T00:08:45;2;2;
40569;PMS5003;26270;34.428;-119.710;2023-03-01T00:11:14;3;3;
40569;PMS5003;26270;34.428;-119.710;2023-03-01T00:13:46;1;1;
40569;PMS5003;26270;34.428;-119.710;2023-03-01T00:16:17;2;2;
40569;PMS5003;26270;34.428;-119.710;2023-03-01T00:18:47;2;1;
40569;PMS5003;26270;34.428;-119.710;2023-03-01T00:21:15;2;2;
40569;PMS5003;26270;34.428;-119.710;2023-03-01T00:23:43;7;2;
40569;PMS5003;26270;34.428;-119.710;2023-03-01T00:26:12;4;2;
40569;PMS5003;26270;34.428;-119.710;2023-03-01T00:28:42;5;3;
40569;PMS5003;26270;34.428;-119.710;2023-03-01T00:31:11;1;1;
40569;PMS5003;26270;34.428;-119.710;2023-03-01T00:33:40;4;4;
40569;PMS5003;26270;34.428;-119.710;2023-03-01T00:36:09;6;5;
40569;PMS5003;26270;34.428;-119.710;2023-03-01T00:38:40;4;3;
40569;PMS5003;26270;34.428;-119.710;2023-03-01T00:41:10;1;0;
40569;PMS5003;26270;34.428;-119.710;2023-03-01T00:43:39;2;1;
40569;PMS5003;26270;34.428;-119.710;2023-03-01T00:46:08;1;1;
40569;PMS5003;26270;34.428;-119.710;2023-03-01T00:48:38;4;3;
40569;PMS5003;26270;34.428;-119.710;2023-03-01T00:51:07;2;1;
40569;PMS5003;26270;34.428;-119.710;2023-03-01T00:53:36;2;1;
40569;PMS5003;26270;34.428;-119.710;2023-03-01T00:56:05;3;2;
40569;PMS5003;26270;34.428;-119.710;2023-03-01T00:58:35;2;1;
40569;PMS5003;26270;34.428;-119.710;2023-03-01T01:01:07;1;1;
40569;PMS5003;26270;34.428;-119.710;2023-03-01T01:03:36;2;1;
40569;PMS5003;26270;34.428;-119.710;2023-03-01T01:06:04;2;0;
40569;PMS5003;26270;34.428;-119.710;2023-03-01T01:08:33;1;0;
40569;PMS5003;26270;34.428;-119.710;2023-03-01T01:11:00;1;0;
40569;PMS5003;26270;34.428;-119.710;2023-03-01T01:13:29;1;0;
40569;PMS5003;26270;34.428;-119.710;2023-03-01T01:16:00;3;1;
40569;PMS5003;26270;34.428;-119.710;2023-03-01T01:18:28;2;1;
40569;PMS5003;26270;34.428;-119.710;2023-03-01T01:20:57;0;0;
40569;PMS5003;26270;34.428;-119.710;2023-03-01T01:23:25;5;1;
40569;PMS5003;26270;34.428;-119.710;2023-03-01T01:25:53;1;0;
40569;PMS5003;26270;34.428;-119.710;2023-03-01T01:28:22;2;1;
40569;PMS5003;26270;34.428;-119.710;2023-03-01T01:30:50;1;0;
40569;PMS5003;26270;34.428;-119.710;2023-03-01T01:33:19;1;1;
40569;PMS5003;26270;34.428;-119.710;2023-03-01T01:35:47;1;1;
40569;PMS5003;26270;34.428;-119.710;2023-03-01T01:38:15;2;2;
40569;PMS5003;26270;34.428;-119.710;2023-03-01T01:40:43;3;2;
40569;PMS5003;26270;34.428;-119.710;2023-03-01T01:43:15;2;2;
40569;PMS5003;26270;34.428;-119.710;2023-03-01T01:45:47;3;2;
40569;PMS5003;26270;34.428;-119.710;2023-03-01T01:48:16;4;1;
40569;PMS5003;26270;34.428;-119.710;2023-03-01T01:50:51;5;1;
40569;PMS5003;26270;34.428;-119.710;2023-03-01T01:53:23;1;1;
40569;PMS5003;26270;34.428;-119.710;2023-03-01T01:55:54;3;2;
40569;PMS5003;26270;34.428;-119.710;2023-03-01T01:58:26;3;2;
40569;PMS5003;26270;34.428;-119.710;2023-03-01T02:00:57;3;2;
40569;PMS5003;26270;34.428;-119.710;2023-03-01T02:03:26;4;3;
40569;PMS5003;26270;34.428;-119.710;2023-03-01T02:05:58;4;3;
40569;PMS5003;26270;34.428;-119.710;2023-03-01T02:08:31;4;4;
40569;PMS5003;26270;34.428;-119.710;2023-03-01T02:11:04;3;3;
40569;PMS5003;26270;34.428;-119.710;2023-03-01T02:13:33;3;3;
40569;PMS5003;26270;34.428;-119.710;2023-03-01T02:16:03;5;3;
40569;PMS5003;26270;34.428;-119.710;2023-03-01T02:18:32;4;3;
40569;PMS5003;26270;34.428;-119.710;2023-03-01T02:21:04;5;3;
40569;PMS5003;26270;34.428;-119.710;2023-03-01T02:23:41;6;3;
40569;PMS5003;26270;34.428;-119.710;2023-03-01T02:26:11;6;6;
40569;PMS5003;26270;34.428;-119.710;2023-03-01T02:28:46;6;6;
40569;PMS5003;26270;34.428;-119.710;2023-03-01T02:31:16;4;4;
40569;PMS5003;26270;34.428;-119.710;2023-03-01T02:33:46;8;6;
40569;PMS5003;26270;34.428;-119.710;2023-03-01T02:36:17;5;4;
40569;PMS5003;26270;34.428;-119.710;2023-03-01T02:38:47;6;4;
40569;PMS5003;26270;34.428;-119.710;2023-03-01T02:41:17;3;3;
40569;PMS5003;26270;34.428;-119.710;2023-03-01T02:43:48;4;4;
40569;PMS5003;26270;34.428;-119.710;2023-03-01T02:46:17;8;6;
40569;PMS5003;26270;34.428;-119.710;2023-03-01T02:48:48;4;4;
40569;PMS5003;26270;34.428;-119.710;2023-03-01T02:51:24;3;2;
40569;PMS5003;26270;34.428;-119.710;2023-03-01T02:54:05;4;3;
40569;PMS5003;26270;34.428;-119.710;2023-03-01T02:56:42;4;3;
40569;PMS5003;26270;34.428;-119.710;2023-03-01T02:59:12;9;5;
40569;PMS5003;26270;34.428;-119.710;2023-03-01T03:01:40;5;5;
40569;PMS5003;26270;34.428;-119.710;2023-03-01T03:04:09;4;3;
40569;PMS5003;26270;34.428;-119.710;2023-03-01T03:06:40;4;4;
40569;PMS5003;26270;34.428;-119.710;2023-03-01T03:09:08;3;2;
40569;PMS5003;26270;34.428;-119.710;2023-03-01T03:11:37;2;2;
40569;PMS5003;26270;34.428;-119.710;2023-03-01T03:14:07;3;2;
40569;PMS5003;26270;34.428;-119.710;2023-03-01T03:16:36;3;2;
40569;PMS5003;26270;34.428;-119.710;2023-03-01T03:19:04;3;2;
40569;PMS5003;26270;34.428;-119.710;2023-03-01T03:21:33;3;2;
40569;PMS5003;26270;34.428;-119.710;2023-03-01T03:24:02;3;2;
40569;PMS5003;26270;34.428;-119.710;2023-03-01T03:26:31;8;5;
40569;PMS5003;26270;34.428;-119.710;2023-03-01T03:29:00;6;4;
40569;PMS5003;26270;34.428;-119.710;2023-03-01T03:31:29;5;4;
40569;PMS5003;26270;34.428;-119.710;2023-03-01T03:33:57;3;3;
40569;PMS5003;26270;34.428;-119.710;2023-03-01T03:36:25;2;2;
40569;PMS5003;26270;34.428;-119.710;2023-03-01T03:38:53;2;1;
40569;PMS5003;26270;34.428;-119.710;2023-03-01T03:41:21;1;1;
40569;PMS5003;26270;34.428;-119.710;2023-03-01T03:43:49;1;1;
40569;PMS5003;26270;34.428;-119.710;2023-03-01T03:46:17;1;1;
40569;PMS5003;26270;34.428;-119.710;2023-03-01T03:48:46;0;0;
40569;PMS5003;26270;34.428;-119.710;2023-03-01T03:51:14;2;2;
40569;PMS5003;26270;34.428;-119.710;2023-03-01T03:53:44;2;1;
40569;PMS5003;26270;34.428;-119.710;2023-03-01T03:56:13;2;2;
40569;PMS5003;26270;34.428;-119.710;2023-03-01T03:58:41;5;5;
40569;PMS5003;26270;34.428;-119.710;2023-03-01T04:01:09;4;3;
40569;PMS5003;26270;34.428;-119.710;2023-03-01T04:03:37;1;1;
40569;PMS5003;26270;34.428;-119.710;2023-03-01T04:06:06;5;2;
40569;PMS5003;26270;34.428;-119.710;2023-03-01T04:08:33;3;3;
40569;PMS5003;26270;34.428;-119.710;2023-03-01T04:11:02;3;2;
40569;PMS5003;26270;34.428;-119.710;2023-03-01T04:13:31;3;3;
40569;PMS5003;26270;34.428;-119.710;2023-03-01T04:15:59;3;3;
40569;PMS5003;26270;34.428;-119.710;2023-03-01T04:18:27;6;6;
40569;PMS5003;26270;34.428;-119.710;2023-03-01T04:20:55;5;4;
40569;PMS5003;26270;34.428;-119.710;2023-03-01T04:23:23;4;4;
40569;PMS5003;26270;34.428;-119.710;2023-03-01T04:25:52;5;4;
40569;PMS5003;26270;34.428;-119.710;2023-03-01T04:28:22;6;4;
40569;PMS5003;26270;34.428;-119.710;2023-03-01T04:30:51;6;5;
40569;PMS5003;26270;34.428;-119.710;2023-03-01T04:33:20;4;4;
40569;PMS5003;26270;34.428;-119.710;2023-03-01T04:35:49;4;4;
40569;PMS5003;26270;34.428;-119.710;2023-03-01T04:38:17;4;4;
40569;PMS5003;26270;34.428;-119.710;2023-03-01T04:40:46;6;5;
40569;PMS5003;26270;34.428;-119.710;2023-03-01T04:43:15;9;8;
40569;PMS5003;26270;34.428;-119.710;2023-03-01T04:45:43;8;7;
40569;PMS5003;26270;34.428;-119.710;2023-03-01T04:48:12;7;6;
40569;PMS5003;26270;34.428;-119.710;2023-03-01T04:50:39;6;6;
40569;PMS5003;26270;34.428;-119.710;2023-03-01T04:53:08;5;3;
40569;PMS5003;26270;34.428;-119.710;2023-03-01T04:55:37;7;6;
40569;PMS5003;26270;34.428;-119.710;2023-03-01T04:58:05;5;4;
40569;PMS5003;26270;34.428;-119.710;2023-03-01T05:03:19;3;3;
40569;PMS5003;26270;34.428;-119.710;2023-03-01T05:05:49;4;3;
40569;PMS5003;26270;34.428;-119.710;2023-03-01T05:08:18;4;3;
40569;PMS5003;26270;34.428;-119.710;2023-03-01T05:10:48;5;4;
40569;PMS5003;26270;34.428;-119.710;2023-03-01T05:13:18;4;3;
40569;PMS5003;26270;34.428;-119.710;2023-03-01T05:15:46;2;2;
40569;PMS5003;26270;34.428;-119.710;2023-03-01T05:18:15;2;2;
40569;PMS5003;26270;34.428;-119.710;2023-03-01T05:20:43;0;0;
40569;PMS5003;26270;34.428;-119.710;2023-03-01T05:23:11;3;2;
40569;PMS5003;26270;34.428;-119.710;2023-03-01T05:25:39;1;1;
40569;PMS5003;26270;34.428;-119.710;2023-03-01T05:28:07;1;1;
40569;PMS5003;26270;34.428;-119.710;2023-03-01T05:30:38;5;1;
40569;PMS5003;26270;34.428;-119.710;2023-03-01T05:33:07;3;3;
40569;PMS5003;26270;34.428;-119.710;2023-03-01T05:35:35;2;1;
40569;PMS5003;26270;34.428;-119.710;2023-03-01T05:38:04;2;1;
40569;PMS5003;26270;34.428;-119.710;2023-03-01T05:40:32;3;2;
40569;PMS5003;26270;34.428;-119.710;2023-03-01T05:43:01;2;1;
40569;PMS5003;26270;34.428;-119.710;2023-03-01T05:45:29;3;2;
40569;PMS5003;26270;34.428;-119.710;2023-03-01T05:47:58;1;1;
40569;PMS5003;26270;34.428;-119.710;2023-03-01T05:50:27;2;2;
40569;PMS5003;26270;34.428;-119.710;2023-03-01T05:52:58;3;2;
40569;PMS5003;26270;34.428;-119.710;2023-03-01T05:55:28;3;3;
40569;PMS5003;26270;34.428;-119.710;2023-03-01T05:57:58;5;3;
40569;PMS5003;26270;34.428;-119.710;2023-03-01T06:00:26;3;2;
40569;PMS5003;26270;34.428;-119.710;2023-03-01T06:02:56;3;3;
40569;PMS5003;26270;34.428;-119.710;2023-03-01T06:05:25;3;2;
40569;PMS5003;26270;34.428;-119.710;2023-03-01T06:07:53;4;2;
40569;PMS5003;26270;34.428;-119.710;2023-03-01T06:10:25;3;3;
40569;PMS5003;26270;34.428;-119.710;2023-03-01T06:12:53;1;1;
40569;PMS5003;26270;34.428;-119.710;2023-03-01T06:15:22;2;1;
40569;PMS5003;26270;34.428;-119.710;2023-03-01T06:17:52;3;2;
40569;PMS5003;26270;34.428;-119.710;2023-03-01T06:20:21;1;1;
40569;PMS5003;26270;34.428;-119.710;2023-03-01T06:22:51;0;0;
40569;PMS5003;26270;34.428;-119.710;2023-03-01T06:25:21;1;1;
40569;PMS5003;26270;34.428;-119.710;2023-03-01T06:27:50;1;0;
40569;PMS5003;26270;34.428;-119.710;2023-03-01T06:30:19;1;0;
40569;PMS5003;26270;34.428;-119.710;2023-03-01T06:32:49;2;0;
40569;PMS5003;26270;34.428;-119.710;2023-03-01T06:35:18;2;1;
40569;PMS5003;26270;34.428;-119.710;2023-03-01T06:37:47;2;1;
40569;PMS5003;26270;34.428;-119.710;2023-03-01T06:40:15;1;1;
40569;PMS5003;26270;34.428;-119.710;2023-03-01T06:42:47;1;1;
40569;PMS5003;26270;34.428;-119.710;2023-03-01T06:45:16;3;1;
40569;PMS5003;26270;34.428;-119.710;2023-03-01T06:47:46;1;0;
40569;PMS5003;26270;34.428;-119.710;2023-03-01T06:50:14;1;0;
40569;PMS5003;26270;34.428;-119.710;2023-03-01T06:52:43;3;1;
40569;PMS5003;26270;34.428;-119.710;2023-03-01T06:55:12;1;1;
40569;PMS5003;26270;34.428;-119.710;2023-03-01T06:57:40;2;0;
40569;PMS5003;26270;34.428;-119.710;2023-03-01T07:00:09;1;1;
40569;PMS5003;26270;34.428;-119.710;2023-03-01T07:02:37;2;1;
40569;PMS5003;26270;34.428;-119.710;2023-03-01T07:05:06;0;0;
40569;PMS5003;26270;34.428;-119.710;2023-03-01T07:07:34;0;0;
40569;PMS5003;26270;34.428;-119.710;2023-03-01T07:10:03;2;0;
40569;PMS5003;26270;34.428;-119.710;2023-03-01T07:12:32;0;0;
40569;PMS5003;26270;34.428;-119.710;2023-03-01T07:15:00;1;0;
40569;PMS5003;26270;34.428;-119.710;2023-03-01T07:17:29;2;1;
40569;PMS5003;26270;34.428;-119.710;2023-03-01T07:19:58;1;1;
40569;PMS5003;26270;34.428;-119.710;2023-03-01T07:22:26;0;0;
40569;PMS5003;26270;34.428;-119.710;2023-03-01T07:24:54;1;0;
40569;PMS5003;26270;34.428;-119.710;2023-03-01T07:27:22;0;0;
40569;PMS5003;26270;34.428;-119.710;2023-03-01T07:29:50;0;0;
40569;PMS5003;26270;34.428;-119.710;2023-03-01T07:32:18;0;0;
40569;PMS5003;26270;34.428;-119.710;2023-03-01T07:34:46;1;1;
40569;PMS5003;26270;34.428;-119.710;2023-03-01T07:37:13;2;2;
40569;PMS5003;26270;34.428;-119.710;2023-03-01T07:39:42;4;3;
40569;PMS5003;26270;34.428;-119.710;2023-03-01T07:42:10;1;0;
40569;PMS5003;26270;34.428;-119.710;2023-03-01T07:44:38;2;1;
40569;PMS5003;26270;34.428;-119.710;2023-03-01T07:47:06;1;1;
40569;PMS5003;26270;34.428;-119.710;2023-03-01T07:49:34;1;1;
40569;PMS5003;26270;34.428;-119.710;2023-03-01T07:52:02;2;1;
40569;PMS5003;26270;34.428;-119.710;2023-03-01T07:54:31;0;0;
40569;PMS5003;26270;34.428;-119.710;2023-03-01T07:56:59;3;1;
40569;PMS5003;26270;34.428;-119.710;2023-03-01T07:59:28;1;1;
40569;PMS5003;26270;34.428;-119.710;2023-03-01T08:01:56;1;1;
40569;PMS5003;26270;34.428;-119.710;2023-03-01T08:04:25;1;1;
40569;PMS5003;26270;34.428;-119.710;2023-03-01T08:06:53;3;1;
40569;PMS5003;26270;34.428;-119.710;2023-03-01T08:09:22;3;2;
40569;PMS5003;26270;34.428;-119.710;2023-03-01T08:11:51;1;1;
40569;PMS5003;26270;34.428;-119.710;2023-03-01T08:14:19;0;0;
40569;PMS5003;26270;34.428;-119.710;2023-03-01T08:16:48;0;0;
40569;PMS5003;26270;34.428;-119.710;2023-03-01T08:19:17;3;2;
40569;PMS5003;26270;34.428;-119.710;2023-03-01T08:21:45;0;0;
40569;PMS5003;26270;34.428;-119.710;2023-03-01T08:24:12;1;0;
40569;PMS5003;26270;34.428;-119.710;2023-03-01T08:26:40;1;1;
40569;PMS5003;26270;34.428;-119.710;2023-03-01T08:29:09;3;2;
40569;PMS5003;26270;34.428;-119.710;2023-03-01T08:31:38;2;1;
40569;PMS5003;26270;34.428;-119.710;2023-03-01T08:34:08;5;1;
40569;PMS5003;26270;34.428;-119.710;2023-03-01T08:36:40;0;0;
40569;PMS5003;26270;34.428;-119.710;2023-03-01T08:39:09;1;0;
40569;PMS5003;26270;34.428;-119.710;2023-03-01T08:41:39;2;1;
40569;PMS5003;26270;34.428;-119.710;2023-03-01T08:44:08;2;1;
40569;PMS5003;26270;34.428;-119.710;2023-03-01T08:46:39;3;2;
40569;PMS5003;26270;34.428;-119.710;2023-03-01T08:49:10;3;2;
40569;PMS5003;26270;34.428;-119.710;2023-03-01T08:51:40;4;2;
40569;PMS5003;26270;34.428;-119.710;2023-03-01T08:54:10;5;2;
40569;PMS5003;26270;34.428;-119.710;2023-03-01T08:56:40;3;2;
40569;PMS5003;26270;34.428;-119.710;2023-03-01T08:59:09;4;3;
40569;PMS5003;26270;34.428;-119.710;2023-03-01T09:01:37;2;1;
40569;PMS5003;26270;34.428;-119.710;2023-03-01T09:04:06;4;2;
40569;PMS5003;26270;34.428;-119.710;2023-03-01T09:06:34;2;1;
40569;PMS5003;26270;34.428;-119.710;2023-03-01T09:09:03;6;1;
40569;PMS5003;26270;34.428;-119.710;2023-03-01T09:11:33;1;1;
40569;PMS5003;26270;34.428;-119.710;2023-03-01T09:14:04;5;2;
40569;PMS5003;26270;34.428;-119.710;2023-03-01T09:16:32;1;1;
40569;PMS5003;26270;34.428;-119.710;2023-03-01T09:19:02;2;2;
40569;PMS5003;26270;34.428;-119.710;2023-03-01T09:21:31;2;1;
40569;PMS5003;26270;34.428;-119.710;2023-03-01T09:24:00;2;0;
40569;PMS5003;26270;34.428;-119.710;2023-03-01T09:26:28;7;3;
40569;PMS5003;26270;34.428;-119.710;2023-03-01T09:28:56;3;2;
40569;PMS5003;26270;34.428;-119.710;2023-03-01T09:31:25;3;2;
40569;PMS5003;26270;34.428;-119.710;2023-03-01T09:33:53;6;2;
40569;PMS5003;26270;34.428;-119.710;2023-03-01T09:36:22;3;1;
40569;PMS5003;26270;34.428;-119.710;2023-03-01T09:38:51;8;3;
40569;PMS5003;26270;34.428;-119.710;2023-03-01T09:41:26;6;2;
40569;PMS5003;26270;34.428;-119.710;2023-03-01T09:44:07;7;3;
40569;PMS5003;26270;34.428;-119.710;2023-03-01T09:46:44;6;2;
40569;PMS5003;26270;34.428;-119.710;2023-03-01T09:49:14;7;4;
40569;PMS5003;26270;34.428;-119.710;2023-03-01T09:51:48;4;2;
40569;PMS5003;26270;34.428;-119.710;2023-03-01T09:54:24;1;1;
40569;PMS5003;26270;34.428;-119.710;2023-03-01T09:56:57;4;2;
40569;PMS5003;26270;34.428;-119.710;2023-03-01T09:59:37;3;1;
40569;PMS5003;26270;34.428;-119.710;2023-03-01T10:02:21;3;1;
40569;PMS5003;26270;34.428;-119.710;2023-03-01T10:04:58;4;2;
40569;PMS5003;26270;34.428;-119.710;2023-03-01T10:07:42;2;1;
40569;PMS5003;26270;34.428;-119.710;2023-03-01T10:10:23;5;1;
40569;PMS5003;26270;34.428;-119.710;2023-03-01T10:12:55;6;3;
40569;PMS5003;26270;34.428;-119.710;2023-03-01T10:15:27;4;2;
40569;PMS5003;26270;34.428;-119.710;2023-03-01T10:18:02;4;2;
40569;PMS5003;26270;34.428;-119.710;2023-03-01T10:20:41;12;3;
40569;PMS5003;26270;34.428;-119.710;2023-03-01T10:23:14;3;1;
40569;PMS5003;26270;34.428;-119.710;2023-03-01T10:25:46;5;3;
40569;PMS5003;26270;34.428;-119.710;2023-03-01T10:28:25;2;2;
40569;PMS5003;26270;34.428;-119.710;2023-03-01T10:30:58;3;2;
40569;PMS5003;26270;34.428;-119.710;2023-03-01T10:33:27;2;2;
40569;PMS5003;26270;34.428;-119.710;2023-03-01T10:35:58;5;1;
40569;PMS5003;26270;34.428;-119.710;2023-03-01T10:38:27;2;1;
40569;PMS5003;26270;34.428;-119.710;2023-03-01T10:41:14;5;3;
40569;PMS5003;26270;34.428;-119.710;2023-03-01T10:43:44;1;1;
40569;PMS5003;26270;34.428;-119.710;2023-03-01T10:46:22;1;1;
40569;PMS5003;26270;34.428;-119.710;2023-03-01T10:49:12;1;0;
40569;PMS5003;26270;34.428;-119.710;2023-03-01T10:51:43;0;0;
40569;PMS5003;26270;34.428;-119.710;2023-03-01T10:54:17;0;0;
40569;PMS5003;26270;34.428;-119.710;2023-03-01T10:56:49;0;0;
40569;PMS5003;26270;34.428;-119.710;2023-03-01T10:59:22;1;0;
40569;PMS5003;26270;34.428;-119.710;2023-03-01T11:02:03;0;0;
40569;PMS5003;26270;34.428;-119.710;2023-03-01T11:04:56;0;0;
40569;PMS5003;26270;34.428;-119.710;2023-03-01T11:07:27;0;0;
40569;PMS5003;26270;34.428;-119.710;2023-03-01T11:10:01;0;0;
40569;PMS5003;26270;34.428;-119.710;2023-03-01T11:12:39;1;0;
40569;PMS5003;26270;34.428;-119.710;2023-03-01T11:15:08;0;0;
40569;PMS5003;26270;34.428;-119.710;2023-03-01T11:17:49;0;0;
40569;PMS5003;26270;34.428;-119.710;2023-03-01T11:20:20;0;0;
40569;PMS5003;26270;34.428;-119.710;2023-03-01T11:22:54;0;0;
40569;PMS5003;26270;34.428;-119.710;2023-03-01T11:25:26;0;0;
40569;PMS5003;26270;34.428;-119.710;2023-03-01T11:27:59;0;0;
40569;PMS5003;26270;34.428;-119.710;2023-03-01T11:30:30;0;0;
40569;PMS5003;26270;34.428;-119.710;2023-03-01T11:33:08;0;0;
40569;PMS5003;26270;34.428;-119.710;2023-03-01T11:35:46;0;0;
40569;PMS5003;26270;34.428;-119.710;2023-03-01T11:38:22;0;0;
40569;PMS5003;26270;34.428;-119.710;2023-03-01T11:40:54;0;0;
40569;PMS5003;26270;34.428;-119.710;2023-03-01T11:43:28;0;0;
40569;PMS5003;26270;34.428;-119.710;2023-03-01T11:46:41;0;0;
40569;PMS5003;26270;34.428;-119.710;2023-03-01T11:49:34;0;0;
40569;PMS5003;26270;34.428;-119.710;2023-03-01T11:52:18;1;0;
40569;PMS5003;26270;34.428;-119.710;2023-03-01T11:55:02;0;0;
40569;PMS5003;26270;34.428;-119.710;2023-03-01T11:57:49;0;0;
40569;PMS5003;26270;34.428;-119.710;2023-03-01T12:00:39;1;0;
40569;PMS5003;26270;34.428;-119.710;2023-03-01T12:03:26;2;1;
40569;PMS5003;26270;34.428;-119.710;2023-03-01T12:06:02;0;0;
40569;PMS5003;26270;34.428;-119.710;2023-03-01T12:09:14;0;0;
40569;PMS5003;26270;34.428;-119.710;2023-03-01T12:11:57;0;0;
40569;PMS5003;26270;34.428;-119.710;2023-03-01T12:14:46;0;0;
40569;PMS5003;26270;34.428;-119.710;2023-03-01T12:17:31;1;0;
40569;PMS5003;26270;34.428;-119.710;2023-03-01T12:20:18;1;0;
40569;PMS5003;26270;34.428;-119.710;2023-03-01T12:22:56;1;0;
40569;PMS5003;26270;34.428;-119.710;2023-03-01T12:25:39;31;31;
40569;PMS5003;26270;34.428;-119.710;2023-03-01T12:28:53;59;59;
40569;PMS5003;26270;34.428;-119.710;2023-03-01T12:31:58;166;166;
40569;PMS5003;26270;34.428;-119.710;2023-03-01T12:34:39;154;154;
40569;PMS5003;26270;34.428;-119.710;2023-03-01T12:37:34;103;102;
40569;PMS5003;26270;34.428;-119.710;2023-03-01T12:40:16;76;76;
40569;PMS5003;26270;34.428;-119.710;2023-03-01T12:42:57;41;41;
40569;PMS5003;26270;34.428;-119.710;2023-03-01T12:45:38;13;12;
40569;PMS5003;26270;34.428;-119.710;2023-03-01T12:48:23;0;0;
40569;PMS5003;26270;34.428;-119.710;2023-03-01T12:50:59;0;0;
40569;PMS5003;26270;34.428;-119.710;2023-03-01T12:53:34;1;1;
40569;PMS5003;26270;34.428;-119.710;2023-03-01T12:56:06;1;0;
40569;PMS5003;26270;34.428;-119.710;2023-03-01T12:58:38;0;0;
40569;PMS5003;26270;34.428;-119.710;2023-03-01T13:01:15;0;0;
40569;PMS5003;26270;34.428;-119.710;2023-03-01T13:03:58;1;0;
40569;PMS5003;26270;34.428;-119.710;2023-03-01T13:06:43;0;0;
40569;PMS5003;26270;34.428;-119.710;2023-03-01T13:09:23;0;0;
40569;PMS5003;26270;34.428;-119.710;2023-03-01T13:11:56;5;5;
40569;PMS5003;26270;34.428;-119.710;2023-03-01T13:14:56;7;7;
40569;PMS5003;26270;34.428;-119.710;2023-03-01T13:17:30;4;4;
40569;PMS5003;26270;34.428;-119.710;2023-03-01T13:20:11;3;2;
40569;PMS5003;26270;34.428;-119.710;2023-03-01T13:22:43;0;0;
40569;PMS5003;26270;34.428;-119.710;2023-03-01T13:25:15;0;0;
40569;PMS5003;26270;34.428;-119.710;2023-03-01T13:27:45;0;0;
40569;PMS5003;26270;34.428;-119.710;2023-03-01T13:30:45;0;0;
40569;PMS5003;26270;34.428;-119.710;2023-03-01T13:33:47;0;0;
40569;PMS5003;26270;34.428;-119.710;2023-03-01T13:36:48;0;0;
40569;PMS5003;26270;34.428;-119.710;2023-03-01T13:39:38;0;0;
40569;PMS5003;26270;34.428;-119.710;2023-03-01T13:42:28;0;0;
40569;PMS5003;26270;34.428;-119.710;2023-03-01T13:45:00;2;0;
40569;PMS5003;26270;34.428;-119.710;2023-03-01T13:47:29;1;1;
40569;PMS5003;26270;34.428;-119.710;2023-03-01T13:50:00;0;0;
40569;PMS5003;26270;34.428;-119.710;2023-03-01T13:52:34;1;0;
40569;PMS5003;26270;34.428;-119.710;2023-03-01T13:55:06;0;0;
40569;PMS5003;26270;34.428;-119.710;2023-03-01T13:57:46;0;0;
40569;PMS5003;26270;34.428;-119.710;2023-03-01T14:00:25;0;0;
40569;PMS5003;26270;34.428;-119.710;2023-03-01T14:03:00;0;0;
40569;PMS5003;26270;34.428;-119.710;2023-03-01T14:05:32;0;0;
40569;PMS5003;26270;34.428;-119.710;2023-03-01T14:08:01;0;0;
40569;PMS5003;26270;34.428;-119.710;2023-03-01T14:10:31;144;138;
40569;PMS5003;26270;34.428;-119.710;2023-03-01T14:13:27;18;12;
40569;PMS5003;26270;34.428;-119.710;2023-03-01T14:16:12;37;31;
40569;PMS5003;26270;34.428;-119.710;2023-03-01T14:18:52;12;10;
40569;PMS5003;26270;34.428;-119.710;2023-03-01T14:21:29;34;31;
40569;PMS5003;26270;34.428;-119.710;2023-03-01T14:23:57;16;11;
40569;PMS5003;26270;34.428;-119.710;2023-03-01T14:26:27;23;16;
40569;PMS5003;26270;34.428;-119.710;2023-03-01T14:28:57;11;5;
40569;PMS5003;26270;34.428;-119.710;2023-03-01T14:31:32;30;27;
40569;PMS5003;26270;34.428;-119.710;2023-03-01T14:34:03;18;12;
40569;PMS5003;26270;34.428;-119.710;2023-03-01T14:36:33;21;15;
40569;PMS5003;26270;34.428;-119.710;2023-03-01T14:39:15;19;13;
40569;PMS5003;26270;34.428;-119.710;2023-03-01T14:41:45;15;10;
40569;PMS5003;26270;34.428;-119.710;2023-03-01T14:44:15;10;4;
40569;PMS5003;26270;34.428;-119.710;2023-03-01T14:46:51;15;10;
40569;PMS5003;26270;34.428;-119.710;2023-03-01T14:49:21;24;19;
40569;PMS5003;26270;34.428;-119.710;2023-03-01T14:51:53;7;1;
40569;PMS5003;26270;34.428;-119.710;2023-03-01T14:54:27;18;12;
40569;PMS5003;26270;34.428;-119.710;2023-03-01T14:57:00;13;9;
40569;PMS5003;26270;34.428;-119.710;2023-03-01T14:59:28;20;14;
40569;PMS5003;26270;34.428;-119.710;2023-03-01T15:01:57;22;18;
40569;PMS5003;26270;34.428;-119.710;2023-03-01T15:04:27;18;12;
40569;PMS5003;26270;34.428;-119.710;2023-03-01T15:06:56;14;7;
40569;PMS5003;26270;34.428;-119.710;2023-03-01T15:09:25;15;10;
40569;PMS5003;26270;34.428;-119.710;2023-03-01T15:11:53;23;18;
40569;PMS5003;26270;34.428;-119.710;2023-03-01T15:14:25;20;14;
40569;PMS5003;26270;34.428;-119.710;2023-03-01T15:16:55;22;16;
40569;PMS5003;26270;34.428;-119.710;2023-03-01T15:19:24;18;12;
40569;PMS5003;26270;34.428;-119.710;2023-03-01T15:21:55;12;6;
40569;PMS5003;26270;34.428;-119.710;2023-03-01T15:24:24;18;11;
40569;PMS5003;26270;34.428;-119.710;2023-03-01T15:26:53;21;16;
40569;PMS5003;26270;34.428;-119.710;2023-03-01T15:29:24;10;5;
40569;PMS5003;26270;34.428;-119.710;2023-03-01T15:31:56;15;11;
40569;PMS5003;26270;34.428;-119.710;2023-03-01T15:34:26;31;29;
40569;PMS5003;26270;34.428;-119.710;2023-03-01T15:36:56;57;57;
40569;PMS5003;26270;34.428;-119.710;2023-03-01T15:39:35;91;91;
40569;PMS5003;26270;34.428;-119.710;2023-03-01T15:42:07;41;41;
40569;PMS5003;26270;34.428;-119.710;2023-03-01T15:44:37;25;25;
40569;PMS5003;26270;34.428;-119.710;2023-03-01T15:47:22;7;7;
40569;PMS5003;26270;34.428;-119.710;2023-03-01T15:49:55;4;4;
40569;PMS5003;26270;34.428;-119.710;2023-03-01T15:52:27;2;2;
40569;PMS5003;26270;34.428;-119.710;2023-03-01T15:54:58;0;0;
40569;PMS5003;26270;34.428;-119.710;2023-03-01T15:57:28;0;0;
40569;PMS5003;26270;34.428;-119.710;2023-03-01T15:59:57;0;0;
40569;PMS5003;26270;34.428;-119.710;2023-03-01T16:02:25;1;0;
40569;PMS5003;26270;34.428;-119.710;2023-03-01T16:04:54;0;0;
40569;PMS5003;26270;34.428;-119.710;2023-03-01T16:07:22;0;0;
40569;PMS5003;26270;34.428;-119.710;2023-03-01T16:09:51;1;0;
40569;PMS5003;26270;34.428;-119.710;2023-03-01T16:12:19;0;0;
40569;PMS5003;26270;34.428;-119.710;2023-03-01T16:14:48;0;0;
40569;PMS5003;26270;34.428;-119.710;2023-03-01T16:17:16;0;0;
40569;PMS5003;26270;34.428;-119.710;2023-03-01T16:19:44;0;0;
40569;PMS5003;26270;34.428;-119.710;2023-03-01T16:22:12;2;1;
40569;PMS5003;26270;34.428;-119.710;2023-03-01T16:24:41;2;1;
40569;PMS5003;26270;34.428;-119.710;2023-03-01T16:27:09;0;0;
40569;PMS5003;26270;34.428;-119.710;2023-03-01T16:29:38;0;0;
40569;PMS5003;26270;34.428;-119.710;2023-03-01T16:32:06;1;0;